Time;durP1;ratioP1;P1;durP2;ratioP2;P2;SDS_P1;SDS_P2;PMS_P1;PMS_P2;Temp;Humidity;BMP_temperature;BMP_pressure;BME280_temperature;BME280_humidity;BME280_pressure;Samples;Min_cycle;Max_cycle;Signal;HPM_P1;HPM_P2
2021/11/08 00:01:11;;;;;;;47.55;17.42;;;6.20;99.90;;;;;;5007949;28;20404;-75
2021/11/08 00:03:41;;;;;;;56.95;16.58;;;6.20;99.90;;;;;;4992353;28;20126;-76
2021/11/08 00:06:08;;;;;;;48.55;18.67;;;6.20;99.90;;;;;;5008412;28;20304;-76
2021/11/08 00:08:37;;;;;;;41.88;16.20;;;6.20;99.90;;;;;;4994182;28;20038;-77
2021/11/08 00:11:04;;;;;;;51.38;17.02;;;6.10;99.90;;;;;;5007121;28;20156;-76
2021/11/08 00:13:31;;;;;;;46.95;16.08;;;6.20;99.90;;;;;;5008293;28;20054;-76
2021/11/08 00:19:14;;;;;;;49.78;16.08;;;6.10;99.90;;;;;;5025107;28;20140;-76
2021/11/08 00:21:34;;;;;;;44.55;15.57;;;6.20;99.90;;;;;;5023643;28;20408;-76
2021/11/08 00:24:02;;;;;;;46.88;14.38;;;6.20;99.90;;;;;;5007678;28;20459;-76
2021/11/08 00:26:29;;;;;;;46.90;13.15;;;6.20;99.90;;;;;;4991905;28;20057;-76
2021/11/08 00:28:56;;;;;;;47.35;15.40;;;6.20;99.90;;;;;;5007287;28;20045;-76
2021/11/08 00:31:23;;;;;;;46.83;14.40;;;6.20;99.90;;;;;;5024855;28;20060;-75
2021/11/08 00:33:49;;;;;;;46.55;13.50;;;6.10;99.90;;;;;;5006592;28;20472;-76
2021/11/08 00:36:16;;;;;;;36.33;15.30;;;6.10;99.90;;;;;;5008365;28;20049;-76
2021/11/08 00:38:44;;;;;;;41.28;16.40;;;6.10;99.90;;;;;;5022417;28;20141;-76
2021/11/08 00:41:11;;;;;;;48.42;17.15;;;6.10;99.90;;;;;;5006204;28;20128;-76
2021/11/08 00:43:38;;;;;;;31.55;13.65;;;6.10;99.90;;;;;;5007542;28;20531;-76
2021/11/08 00:46:05;;;;;;;44.20;12.60;;;6.10;99.90;;;;;;5024774;28;20076;-76
2021/11/08 00:48:35;;;;;;;45.08;16.52;;;6.10;99.90;;;;;;5007627;28;20049;-76
2021/11/08 00:51:03;;;;;;;51.38;15.73;;;6.10;99.90;;;;;;5025455;28;20051;-76
2021/11/08 00:53:31;;;;;;;52.00;16.80;;;6.10;99.90;;;;;;4991053;28;20137;-76
2021/11/08 00:56:02;;;;;;;37.83;15.20;;;6.10;99.90;;;;;;5025501;28;20105;-76
2021/11/08 00:58:37;;;;;;;48.92;17.23;;;6.10;99.90;;;;;;5021418;28;20049;-76
2021/11/08 01:01:08;;;;;;;41.22;14.68;;;6.00;99.90;;;;;;5023225;28;20055;-75
2021/11/08 01:03:43;;;;;;;37.13;14.15;;;6.10;99.90;;;;;;5006542;28;20061;-76
2021/11/08 01:06:11;;;;;;;46.22;15.13;;;6.10;99.90;;;;;;5024538;28;20412;-76
2021/11/08 01:08:40;;;;;;;43.50;15.50;;;6.10;99.90;;;;;;5026120;28;20115;-76
2021/11/08 01:11:08;;;;;;;48.40;19.98;;;6.10;99.90;;;;;;5005895;28;20521;-76
2021/11/08 01:13:36;;;;;;;51.13;19.60;;;6.00;99.90;;;;;;5025042;28;20077;-76
2021/11/08 01:16:03;;;;;;;44.13;18.65;;;6.00;99.90;;;;;;5025142;28;20149;-76
2021/11/08 01:18:30;;;;;;;60.55;19.52;;;6.00;99.90;;;;;;5007453;28;20107;-76
2021/11/08 01:20:57;;;;;;;52.75;18.52;;;6.00;99.90;;;;;;5023816;28;20091;-76
2021/11/08 01:23:28;;;;;;;44.33;17.85;;;6.00;99.90;;;;;;5024719;28;20065;-75
2021/11/08 01:26:04;;;;;;;40.55;15.65;;;6.00;99.90;;;;;;5022709;28;20049;-76
2021/11/08 01:28:35;;;;;;;40.90;16.30;;;6.10;99.90;;;;;;5006682;28;20049;-76
2021/11/08 01:31:08;;;;;;;42.25;16.55;;;6.10;99.90;;;;;;4990154;28;20419;-76
2021/11/08 01:33:36;;;;;;;43.72;18.90;;;6.00;99.90;;;;;;5004321;28;20584;-76
2021/11/08 01:38:38;;;;;;;42.80;18.42;;;6.00;99.90;;;;;;4992797;28;20041;-75
2021/11/08 01:41:06;;;;;;;39.33;17.40;;;6.00;99.90;;;;;;4997055;28;20049;-76
2021/11/08 01:43:34;;;;;;;57.83;19.63;;;6.00;99.90;;;;;;4973163;28;20187;-76
2021/11/08 01:46:02;;;;;;;65.88;22.85;;;6.00;99.90;;;;;;4988994;28;20060;-76
2021/11/08 01:48:29;;;;;;;63.08;22.48;;;6.00;99.90;;;;;;4990105;28;20107;-76
2021/11/08 01:50:56;;;;;;;55.40;23.77;;;6.00;99.90;;;;;;4990170;28;20041;-75
2021/11/08 01:53:23;;;;;;;58.80;23.20;;;6.00;99.90;;;;;;5024523;28;20045;-76
2021/11/08 01:55:51;;;;;;;63.92;24.02;;;6.00;99.90;;;;;;5023997;28;20446;-75
2021/11/08 01:58:24;;;;;;;56.50;23.73;;;6.10;99.90;;;;;;5021162;28;20052;-76
2021/11/08 02:00:52;;;;;;;51.15;23.65;;;6.10;99.90;;;;;;5022972;28;20119;-76
2021/11/08 02:03:19;;;;;;;62.90;25.40;;;6.10;99.90;;;;;;4989562;28;20053;-76
2021/11/08 02:05:47;;;;;;;58.75;29.33;;;6.10;99.90;;;;;;4988563;28;20045;-76
2021/11/08 02:08:15;;;;;;;56.60;27.17;;;6.10;99.90;;;;;;5025948;28;20783;-76
2021/11/08 02:10:42;;;;;;;58.65;28.58;;;6.00;99.90;;;;;;5004470;28;20053;-76
2021/11/08 02:13:09;;;;;;;62.00;32.90;;;6.10;99.90;;;;;;5003584;28;20049;-76
2021/11/08 02:15:36;;;;;;;76.28;31.13;;;6.10;99.90;;;;;;5025752;28;20061;-76
2021/11/08 02:18:05;;;;;;;78.32;29.70;;;6.10;99.90;;;;;;5009525;28;20046;-76
2021/11/08 02:20:34;;;;;;;68.85;32.15;;;6.00;99.90;;;;;;4999491;28;20065;-75
2021/11/08 02:23:06;;;;;;;70.82;31.52;;;6.10;99.90;;;;;;5006380;28;20041;-75
2021/11/08 02:25:36;;;;;;;72.90;33.97;;;6.10;99.90;;;;;;5022285;28;20041;-75
2021/11/08 02:28:06;;;;;;;64.93;32.72;;;6.10;99.90;;;;;;5005752;28;20508;-75
2021/11/08 02:30:36;;;;;;;60.92;34.25;;;6.10;99.90;;;;;;4967285;28;20046;-75
2021/11/08 02:33:07;;;;;;;58.40;30.13;;;6.10;99.90;;;;;;5006312;28;20126;-76
2021/11/08 02:35:35;;;;;;;61.33;27.95;;;6.20;99.90;;;;;;4986155;28;20085;-76
2021/11/08 02:38:03;;;;;;;67.90;30.23;;;6.10;99.90;;;;;;4991378;28;20045;-76
2021/11/08 02:40:30;;;;;;;72.30;32.97;;;6.10;99.90;;;;;;5005959;28;20447;-76
2021/11/08 02:43:03;;;;;;;76.10;32.53;;;6.10;99.90;;;;;;4988718;28;20045;-76
2021/11/08 02:45:31;;;;;;;68.10;29.50;;;6.10;99.90;;;;;;5023274;28;20103;-76
2021/11/08 02:47:58;;;;;;;55.92;28.20;;;6.20;99.90;;;;;;5005651;28;20089;-75
2021/11/08 02:50:29;;;;;;;71.07;31.05;;;6.20;99.90;;;;;;4988749;28;20045;-76
2021/11/08 02:52:56;;;;;;;63.42;34.55;;;6.20;99.90;;;;;;5022165;28;20069;-76
2021/11/08 02:55:25;;;;;;;74.25;35.40;;;6.10;99.90;;;;;;4989265;28;20129;-76
2021/11/08 02:57:55;;;;;;;78.47;36.63;;;6.10;99.90;;;;;;4989541;28;20500;-76
2021/11/08 03:00:24;;;;;;;87.55;36.25;;;6.10;99.90;;;;;;4972620;28;20088;-75
2021/11/08 03:02:51;;;;;;;70.90;34.50;;;6.20;99.90;;;;;;5004781;28;20415;-76
2021/11/08 03:05:30;;;;;;;86.63;39.13;;;6.10;99.90;;;;;;4986718;28;20055;-76
2021/11/08 03:08:02;;;;;;;92.50;41.58;;;6.10;99.90;;;;;;4988796;28;20037;-76
2021/11/08 03:10:32;;;;;;;94.25;42.90;;;6.10;99.90;;;;;;4988735;28;20557;-76
2021/11/08 03:13:07;;;;;;;91.75;41.45;;;6.10;99.90;;;;;;4989704;28;20060;-76
2021/11/08 03:15:50;;;;;;;96.05;40.95;;;6.10;99.90;;;;;;5004222;28;20189;-76
2021/11/08 03:18:28;;;;;;;94.82;41.05;;;6.10;99.90;;;;;;5026063;28;20475;-76
2021/11/08 03:20:55;;;;;;;93.25;43.85;;;6.20;99.90;;;;;;5024833;28;20049;-76
2021/11/08 03:23:22;;;;;;;96.97;42.83;;;6.10;99.90;;;;;;4991600;28;20100;-76
2021/11/08 03:25:59;;;;;;;99.30;43.38;;;6.10;99.90;;;;;;5007239;28;20034;-76
2021/11/08 03:28:26;;;;;;;109.78;44.72;;;6.10;99.90;;;;;;4984509;28;20475;-76
2021/11/08 03:30:55;;;;;;;88.85;41.28;;;6.10;99.90;;;;;;5008182;28;20111;-76
2021/11/08 03:33:23;;;;;;;92.20;43.30;;;6.10;99.90;;;;;;4992417;28;20050;-76
2021/11/08 03:35:51;;;;;;;90.18;40.60;;;6.10;99.90;;;;;;4992565;28;20099;-76
2021/11/08 03:38:18;;;;;;;97.53;43.38;;;6.20;99.90;;;;;;5008508;28;20049;-76
2021/11/08 03:40:46;;;;;;;96.10;42.22;;;6.10;99.90;;;;;;5024025;28;20126;-76
2021/11/08 03:43:17;;;;;;;93.35;41.05;;;6.10;99.90;;;;;;5004952;28;20522;-76
2021/11/08 03:45:45;;;;;;;89.40;42.60;;;6.10;99.90;;;;;;4988195;28;20045;-76
2021/11/08 03:48:14;;;;;;;88.90;41.00;;;6.20;99.90;;;;;;5006509;28;20123;-76
2021/11/08 03:50:42;;;;;;;100.63;42.95;;;6.20;99.90;;;;;;4991017;28;20111;-76
2021/11/08 03:53:09;;;;;;;99.50;42.85;;;6.20;99.90;;;;;;5008522;28;20038;-76
2021/11/08 03:55:36;;;;;;;88.63;42.38;;;6.20;99.90;;;;;;5007570;28;20049;-76
2021/11/08 03:58:04;;;;;;;111.57;42.83;;;6.20;99.90;;;;;;5022268;28;20607;-76
2021/11/08 04:00:31;;;;;;;99.68;41.75;;;6.20;99.90;;;;;;4989192;28;20429;-76
2021/11/08 04:02:59;;;;;;;102.63;41.17;;;6.20;99.90;;;;;;4987909;28;20064;-76
2021/11/08 04:05:29;;;;;;;101.95;42.20;;;6.20;99.90;;;;;;4992241;28;20414;-76
2021/11/08 04:08:03;;;;;;;93.47;41.97;;;6.30;99.90;;;;;;4991545;28;20166;-76
2021/11/08 04:10:31;;;;;;;97.88;43.60;;;6.30;99.90;;;;;;5006495;28;20083;-76
2021/11/08 04:13:04;;;;;;;110.35;41.20;;;6.30;99.90;;;;;;5008822;28;20095;-76
2021/11/08 04:15:36;;;;;;;89.47;42.53;;;6.30;99.90;;;;;;5027146;28;20385;-76
2021/11/08 04:18:06;;;;;;;90.90;35.70;;;6.20;99.90;;;;;;5008135;28;20131;-75
2021/11/08 04:20:34;;;;;;;93.88;40.78;;;6.20;99.90;;;;;;5005512;28;20076;-75
2021/11/08 04:23:01;;;;;;;97.47;39.63;;;6.20;99.90;;;;;;5025713;28;20053;-76
2021/11/08 04:25:28;;;;;;;102.68;44.80;;;6.10;99.90;;;;;;4991517;28;20319;-75
2021/11/08 04:27:56;;;;;;;97.47;42.58;;;6.10;99.90;;;;;;5006535;28;20057;-75
2021/11/08 04:30:26;;;;;;;104.28;43.33;;;6.20;99.90;;;;;;5005980;28;20454;-76
2021/11/08 04:35:38;;;;;;;95.70;43.78;;;6.20;99.90;;;;;;5025670;28;20076;-74
2021/11/08 04:46:57;;;;;;;100.18;40.30;;;6.20;99.90;;;;;;5011584;28;20057;-74
2021/11/08 04:49:51;;;;;;;91.43;38.13;;;6.20;99.90;;;;;;4974181;28;20489;-75
2021/11/08 04:54:58;;;;;;;108.00;42.20;;;6.20;99.90;;;;;;4991291;28;20053;-74
2021/11/08 05:30:11;;;;;;;104.28;45.70;;;6.40;99.90;;;;;;5023735;28;20052;-74
2021/11/08 05:32:41;;;;;;;98.55;45.67;;;6.30;99.90;;;;;;5006670;28;20049;-74
2021/11/08 05:35:10;;;;;;;103.03;43.00;;;6.50;99.90;;;;;;5006950;28;20107;-74
2021/11/08 05:37:41;;;;;;;100.00;45.30;;;6.40;99.90;;;;;;5006259;28;20053;-75
2021/11/08 05:40:12;;;;;;;96.22;44.38;;;6.40;99.90;;;;;;5025030;28;20053;-75
2021/11/08 05:42:39;;;;;;;97.53;44.35;;;6.40;99.90;;;;;;5006399;28;20053;-74
2021/11/08 05:45:09;;;;;;;97.20;41.22;;;6.50;99.90;;;;;;5006961;28;20119;-74
2021/11/08 05:47:36;;;;;;;83.45;40.35;;;6.50;99.90;;;;;;5007068;28;20133;-74
2021/11/08 05:50:05;;;;;;;83.65;38.78;;;6.50;99.90;;;;;;5024105;28;20102;-74
2021/11/08 05:52:32;;;;;;;81.13;39.92;;;6.50;99.90;;;;;;5024439;28;20053;-74
2021/11/08 05:54:59;;;;;;;78.75;38.65;;;6.40;99.90;;;;;;5010356;28;20047;-74
2021/11/08 06:50:10;;;;;;;77.85;32.58;;;6.60;99.90;;;;;;5020639;28;20058;-75
2021/11/08 06:52:40;;;;;;;59.65;29.95;;;6.60;99.90;;;;;;4978657;28;20050;-74
2021/11/08 06:55:07;;;;;;;70.78;31.63;;;6.50;99.90;;;;;;5009394;28;20064;-74
2021/11/08 06:57:51;;;;;;;73.28;33.47;;;6.60;99.90;;;;;;5013195;28;20068;-75
2021/11/08 07:00:24;;;;;;;80.57;33.42;;;6.60;99.90;;;;;;5010851;28;20056;-75
2021/11/08 07:02:51;;;;;;;73.75;31.95;;;6.50;99.90;;;;;;5008264;28;20107;-75
2021/11/08 07:05:18;;;;;;;71.75;30.98;;;6.60;99.90;;;;;;5009988;28;20061;-74
2021/11/08 07:07:45;;;;;;;73.47;31.10;;;6.50;99.90;;;;;;4992588;28;20046;-74
2021/11/08 07:10:12;;;;;;;67.90;29.50;;;6.50;99.90;;;;;;5010904;28;20083;-74
2021/11/08 07:12:40;;;;;;;90.65;35.33;;;6.60;99.90;;;;;;4991449;28;20704;-75
2021/11/08 07:15:07;;;;;;;72.05;32.10;;;6.50;99.90;;;;;;5009620;28;20487;-74
2021/11/08 07:17:35;;;;;;;79.18;31.15;;;6.50;99.90;;;;;;5027349;28;20450;-75
2021/11/08 07:20:02;;;;;;;66.13;28.33;;;6.60;99.90;;;;;;5009020;28;20455;-75
2021/11/08 07:22:29;;;;;;;75.30;28.48;;;6.50;99.90;;;;;;5025484;28;20084;-75
2021/11/08 07:24:56;;;;;;;67.90;28.08;;;6.50;99.90;;;;;;4974968;28;20492;-74
2021/11/08 07:27:23;;;;;;;66.35;28.27;;;6.60;99.90;;;;;;4973193;28;20195;-75
2021/11/08 07:29:51;;;;;;;77.93;27.52;;;6.60;99.90;;;;;;5004091;28;20060;-75
2021/11/08 07:32:18;;;;;;;62.33;24.48;;;6.60;99.90;;;;;;5008113;28;20105;-75
2021/11/08 07:34:45;;;;;;;71.38;27.73;;;6.50;99.90;;;;;;5009252;28;20107;-74
2021/11/08 07:37:12;;;;;;;66.25;27.13;;;6.60;99.90;;;;;;4992498;28;20049;-74
2021/11/08 07:39:39;;;;;;;74.07;29.25;;;6.60;99.90;;;;;;5025253;28;20108;-74
2021/11/08 07:42:05;;;;;;;73.20;28.58;;;6.60;99.90;;;;;;4992140;28;20053;-74
2021/11/08 07:44:32;;;;;;;74.38;29.05;;;6.60;99.90;;;;;;4973225;28;20053;-75
2021/11/08 07:46:59;;;;;;;70.30;27.20;;;6.70;99.90;;;;;;4987825;28;20112;-75
2021/11/08 07:49:26;;;;;;;73.95;27.00;;;6.70;99.90;;;;;;5000907;28;20053;-75
2021/11/08 07:51:52;;;;;;;60.83;27.30;;;6.70;99.90;;;;;;4991138;28;20141;-74
2021/11/08 07:54:19;;;;;;;69.10;28.83;;;6.70;99.90;;;;;;5006932;28;20069;-74
2021/11/08 07:56:48;;;;;;;71.68;29.70;;;6.70;99.90;;;;;;5008342;28;20423;-75
2021/11/08 07:59:16;;;;;;;65.38;28.90;;;6.70;99.90;;;;;;5008633;28;20042;-75
2021/11/08 08:01:44;;;;;;;67.47;29.15;;;6.70;99.90;;;;;;5007525;28;20082;-75
2021/11/08 08:04:10;;;;;;;70.68;30.77;;;6.70;99.90;;;;;;4987208;28;20047;-74
2021/11/08 08:06:37;;;;;;;74.03;30.15;;;6.80;99.90;;;;;;5008435;28;20118;-75
2021/11/08 08:09:04;;;;;;;75.07;30.27;;;6.80;99.90;;;;;;4992816;28;20495;-75
2021/11/08 08:11:32;;;;;;;59.17;28.67;;;6.80;99.90;;;;;;5007677;28;20107;-75
2021/11/08 08:13:59;;;;;;;77.45;30.42;;;6.80;99.90;;;;;;4992492;28;20045;-75
2021/11/08 08:16:26;;;;;;;69.57;29.35;;;6.80;99.90;;;;;;4978394;28;20045;-74
2021/11/08 08:18:54;;;;;;;72.10;29.23;;;6.80;99.90;;;;;;5008437;28;20061;-74
2021/11/08 08:21:22;;;;;;;69.00;27.90;;;6.70;99.90;;;;;;5007067;28;20053;-74
2021/11/08 08:23:54;;;;;;;70.72;28.80;;;6.80;99.90;;;;;;5007425;28;20037;-74
2021/11/08 08:26:25;;;;;;;67.43;28.58;;;6.90;99.90;;;;;;4991784;28;20046;-75
2021/11/08 08:28:52;;;;;;;70.35;27.83;;;6.90;99.90;;;;;;5024739;28;20045;-75
2021/11/08 08:31:19;;;;;;;59.80;27.65;;;6.90;99.90;;;;;;5007326;28;20111;-74
2021/11/08 08:33:46;;;;;;;74.35;28.38;;;6.90;99.90;;;;;;4991453;28;20045;-75
2021/11/08 08:36:12;;;;;;;66.30;27.17;;;6.90;99.90;;;;;;5006946;28;20113;-75
2021/11/08 08:38:41;;;;;;;70.40;28.08;;;6.90;99.90;;;;;;4993974;28;20053;-75
2021/11/08 08:41:11;;;;;;;77.25;28.98;;;7.00;99.90;;;;;;4991241;28;20045;-74
2021/11/08 08:43:37;;;;;;;68.03;29.35;;;7.00;99.90;;;;;;5026572;28;20061;-74
2021/11/08 08:46:04;;;;;;;79.05;28.58;;;7.10;99.90;;;;;;4990585;28;20466;-75
2021/11/08 08:48:31;;;;;;;69.88;27.73;;;7.00;99.90;;;;;;4990435;28;20091;-75
2021/11/08 08:51:00;;;;;;;67.03;28.83;;;7.00;99.90;;;;;;5005310;28;20053;-74
2021/11/08 08:53:28;;;;;;;63.65;26.90;;;7.00;99.90;;;;;;5006965;28;20037;-75
2021/11/08 08:56:16;;;;;;;70.18;28.50;;;7.10;99.90;;;;;;4991855;28;20111;-74
2021/11/08 08:58:43;;;;;;;66.10;31.85;;;7.10;99.90;;;;;;5009259;28;20080;-75
2021/11/08 09:01:10;;;;;;;64.20;28.88;;;7.20;99.90;;;;;;5002977;28;20097;-75
2021/11/08 09:03:36;;;;;;;80.07;30.02;;;7.20;99.90;;;;;;4990535;28;20056;-74
2021/11/08 09:06:03;;;;;;;58.83;28.33;;;7.20;99.90;;;;;;5007031;28;20446;-74
2021/11/08 09:08:32;;;;;;;54.83;26.50;;;7.20;99.90;;;;;;4991806;28;20088;-75
2021/11/08 09:10:59;;;;;;;63.35;25.63;;;7.20;99.90;;;;;;4989581;28;20045;-75
2021/11/08 09:13:26;;;;;;;59.47;22.52;;;7.30;99.90;;;;;;5026136;28;20111;-75
2021/11/08 09:15:52;;;;;;;67.43;22.65;;;7.20;99.90;;;;;;5025180;28;20038;-75
2021/11/08 09:18:19;;;;;;;55.38;23.58;;;7.20;99.90;;;;;;5010800;28;20041;-74
2021/11/08 09:20:46;;;;;;;68.30;24.20;;;7.20;99.90;;;;;;4990164;28;20115;-75
2021/11/08 09:23:13;;;;;;;58.47;23.35;;;7.40;99.90;;;;;;4974587;28;20311;-74
2021/11/08 09:25:40;;;;;;;60.75;23.90;;;7.30;99.90;;;;;;4989582;28;20099;-75
2021/11/08 09:28:08;;;;;;;54.15;22.67;;;7.30;99.90;;;;;;5022801;28;20125;-75
2021/11/08 09:30:41;;;;;;;49.40;21.42;;;7.40;99.90;;;;;;5000941;28;20191;-75
2021/11/08 09:33:09;;;;;;;55.63;21.05;;;7.40;99.90;;;;;;4989316;28;20061;-75
2021/11/08 09:35:38;;;;;;;53.38;22.30;;;7.60;99.90;;;;;;4989884;28;20096;-75
2021/11/08 09:38:08;;;;;;;63.28;21.15;;;7.60;99.90;;;;;;5006426;28;20126;-74
2021/11/08 09:40:37;;;;;;;53.15;21.95;;;7.70;99.90;;;;;;4989480;28;20050;-75
2021/11/08 09:43:09;;;;;;;51.88;21.33;;;7.70;99.90;;;;;;5003139;28;20060;-74
2021/11/08 09:45:36;;;;;;;53.67;21.73;;;7.70;99.90;;;;;;5005325;28;20115;-74
2021/11/08 09:48:04;;;;;;;53.10;20.17;;;7.70;99.90;;;;;;4968635;28;20450;-74
2021/11/08 09:50:33;;;;;;;48.95;19.15;;;7.80;99.90;;;;;;5001259;28;20460;-74
2021/11/08 09:53:03;;;;;;;54.10;19.73;;;7.90;99.90;;;;;;5006463;28;20522;-74
2021/11/08 09:55:30;;;;;;;51.63;21.55;;;7.90;99.90;;;;;;5005444;28;20045;-74
2021/11/08 09:57:56;;;;;;;42.25;16.27;;;7.90;99.90;;;;;;4991952;28;20049;-75
2021/11/08 10:00:28;;;;;;;44.33;17.27;;;7.90;99.90;;;;;;5004771;28;20297;-74
2021/11/08 10:02:59;;;;;;;42.13;17.33;;;7.90;99.90;;;;;;4988847;28;20125;-74
2021/11/08 10:05:30;;;;;;;50.25;16.35;;;8.00;99.90;;;;;;5006252;28;20055;-74
2021/11/08 10:07:59;;;;;;;44.30;17.67;;;8.10;99.90;;;;;;5004959;28;20204;-75
2021/11/08 10:10:28;;;;;;;50.40;18.30;;;8.10;99.90;;;;;;4987834;28;20041;-74
2021/11/08 10:13:06;;;;;;;40.38;17.02;;;8.10;99.90;;;;;;5006165;28;20095;-74
2021/11/08 10:15:33;;;;;;;37.95;17.15;;;8.10;99.90;;;;;;5006523;28;20099;-74
2021/11/08 10:18:03;;;;;;;34.58;14.93;;;8.10;99.90;;;;;;4989162;28;20055;-73
2021/11/08 10:20:41;;;;;;;40.00;16.45;;;8.20;99.90;;;;;;5005629;28;20053;-73
2021/11/08 10:23:10;;;;;;;32.70;14.50;;;8.20;99.90;;;;;;5005357;28;20546;-73
2021/11/08 10:25:44;;;;;;;39.63;15.15;;;8.30;99.90;;;;;;4987986;28;20076;-74
2021/11/08 10:28:15;;;;;;;36.80;14.85;;;8.60;99.90;;;;;;4984605;28;20077;-73
2021/11/08 10:30:45;;;;;;;39.05;15.55;;;8.70;99.90;;;;;;5005065;28;20049;-73
2021/11/08 10:33:22;;;;;;;39.53;15.75;;;8.70;99.90;;;;;;5023301;28;20049;-74
2021/11/08 10:35:53;;;;;;;37.72;15.82;;;8.60;99.90;;;;;;4989222;28;20354;-73
2021/11/08 10:38:21;;;;;;;38.03;16.48;;;8.60;99.90;;;;;;4989252;28;20046;-73
2021/11/08 10:40:58;;;;;;;43.90;16.25;;;8.70;99.90;;;;;;4987877;28;20392;-73
2021/11/08 10:43:35;;;;;;;42.15;16.77;;;8.70;99.90;;;;;;4970033;28;20104;-73
2021/11/08 10:46:08;;;;;;;34.63;14.98;;;8.80;99.90;;;;;;4985355;28;20049;-74
2021/11/08 10:48:41;;;;;;;38.70;14.00;;;8.80;99.90;;;;;;4986129;28;20141;-73
2021/11/08 10:51:11;;;;;;;41.47;13.95;;;8.70;99.90;;;;;;5002927;28;20049;-74
2021/11/08 10:53:55;;;;;;;43.38;16.50;;;8.80;99.90;;;;;;5005952;28;20420;-73
2021/11/08 10:56:33;;;;;;;38.15;13.52;;;8.90;99.90;;;;;;4988254;28;20053;-74
2021/11/08 10:59:07;;;;;;;37.42;12.55;;;8.90;99.90;;;;;;5014119;28;20057;-73
2021/11/08 11:01:39;;;;;;;42.50;15.70;;;8.80;99.90;;;;;;4983741;28;20057;-73
2021/11/08 11:04:06;;;;;;;36.50;14.55;;;8.90;99.90;;;;;;5019830;28;20053;-73
2021/11/08 11:06:36;;;;;;;36.38;13.52;;;8.90;99.90;;;;;;5004371;28;20408;-74
2021/11/08 11:09:09;;;;;;;39.20;15.18;;;9.00;99.90;;;;;;5023160;28;20072;-73
2021/11/08 11:11:36;;;;;;;32.38;13.63;;;9.10;99.90;;;;;;4999400;28;20057;-73
2021/11/08 11:14:04;;;;;;;41.85;14.43;;;9.20;99.90;;;;;;5022639;28;20077;-74
2021/11/08 11:16:33;;;;;;;36.53;15.32;;;9.20;99.90;;;;;;5004840;28;20364;-73
2021/11/08 11:19:07;;;;;;;28.40;11.30;;;9.20;99.90;;;;;;5005812;28;20045;-73
2021/11/08 11:21:35;;;;;;;27.50;13.18;;;9.30;99.90;;;;;;4988270;28;20049;-73
2021/11/08 11:24:05;;;;;;;26.63;10.25;;;9.30;99.90;;;;;;5005603;28;20065;-73
2021/11/08 11:26:46;;;;;;;29.63;10.32;;;9.30;99.90;;;;;;5016645;28;20471;-74
2021/11/08 11:29:24;;;;;;;31.02;11.50;;;9.30;99.90;;;;;;5003793;28;20045;-73
2021/11/08 11:31:51;;;;;;;30.58;10.82;;;9.30;99.90;;;;;;5003742;28;20408;-74
2021/11/08 11:34:18;;;;;;;34.10;11.38;;;9.20;99.90;;;;;;4989538;28;20108;-74
2021/11/08 11:36:44;;;;;;;33.40;12.48;;;9.10;99.90;;;;;;5003997;28;20401;-73
2021/11/08 11:39:16;;;;;;;30.10;11.25;;;9.20;99.90;;;;;;5022115;28;20495;-74
2021/11/08 11:41:46;;;;;;;38.03;12.63;;;9.10;99.90;;;;;;4971679;28;20492;-73
2021/11/08 11:44:20;;;;;;;35.80;12.15;;;9.20;99.90;;;;;;4991859;28;20145;-74
2021/11/08 11:46:50;;;;;;;27.13;9.87;;;9.20;99.90;;;;;;5026136;28;20053;-74
2021/11/08 11:49:17;;;;;;;24.90;8.45;;;9.30;99.90;;;;;;5025744;28;20564;-74
2021/11/08 11:51:49;;;;;;;22.80;6.95;;;9.30;99.90;;;;;;5025907;28;20448;-74
2021/11/08 11:54:25;;;;;;;33.08;9.25;;;9.40;99.90;;;;;;4988874;28;20088;-73
2021/11/08 11:56:54;;;;;;;26.95;7.88;;;9.40;99.90;;;;;;5030640;28;20044;-73
2021/11/08 11:59:21;;;;;;;23.77;8.40;;;9.50;99.90;;;;;;5000913;28;20053;-73
2021/11/08 12:01:48;;;;;;;21.45;8.00;;;9.50;99.90;;;;;;4997531;28;20053;-73
2021/11/08 12:04:24;;;;;;;24.23;8.23;;;9.70;99.90;;;;;;5012849;28;20139;-73
2021/11/08 12:07:02;;;;;;;24.95;8.52;;;9.70;99.90;;;;;;4988552;28;20058;-73
2021/11/08 12:09:34;;;;;;;23.02;8.70;;;9.60;99.90;;;;;;5001756;28;20095;-74
2021/11/08 12:12:03;;;;;;;19.48;6.30;;;9.60;99.90;;;;;;4991121;28;20132;-73
2021/11/08 12:14:33;;;;;;;22.88;6.40;;;9.40;99.90;;;;;;4991791;28;20054;-73
2021/11/08 12:17:16;;;;;;;16.58;5.72;;;9.30;99.90;;;;;;5024872;28;20050;-73
2021/11/08 12:19:45;;;;;;;22.10;6.97;;;9.30;99.90;;;;;;5006616;28;20045;-73
2021/11/08 12:22:26;;;;;;;10.95;5.82;;;9.40;99.90;;;;;;5006489;28;20387;-73
2021/11/08 12:24:57;;;;;;;18.27;5.35;;;9.60;99.90;;;;;;5009073;28;20454;-73
2021/11/08 12:27:49;;;;;;;15.35;6.50;;;9.70;99.90;;;;;;5004692;28;20618;-73
2021/11/08 12:30:32;;;;;;;15.35;6.38;;;9.80;99.90;;;;;;5006831;28;20064;-73
2021/11/08 12:33:32;;;;;;;15.15;5.97;;;10.00;99.90;;;;;;4991148;28;20045;-73
2021/11/08 12:36:21;;;;;;;20.55;7.00;;;10.10;99.90;;;;;;5007739;28;20049;-72
2021/11/08 12:39:19;;;;;;;16.67;6.47;;;10.10;99.90;;;;;;5007717;28;20053;-72
2021/11/08 12:41:48;;;;;;;19.23;7.32;;;10.10;99.90;;;;;;5004568;28;20341;-73
2021/11/08 12:44:17;;;;;;;21.77;6.53;;;10.20;99.90;;;;;;5008101;28;20068;-72
2021/11/08 12:46:51;;;;;;;17.00;7.03;;;10.10;99.90;;;;;;5024664;28;20473;-72
2021/11/08 12:49:37;;;;;;;23.38;8.68;;;9.90;99.90;;;;;;5005287;28;20115;-72
2021/11/08 12:52:11;;;;;;;23.88;6.88;;;9.70;99.90;;;;;;5006360;28;20232;-72
2021/11/08 12:54:55;;;;;;;17.05;7.22;;;9.70;99.90;;;;;;5025560;28;20202;-73
2021/11/08 12:57:25;;;;;;;17.00;7.50;;;9.80;99.90;;;;;;4982979;28;20426;-72
2021/11/08 12:59:59;;;;;;;23.05;8.25;;;9.70;99.90;;;;;;5008321;28;20045;-73
2021/11/08 13:02:28;;;;;;;19.85;6.85;;;9.60;99.90;;;;;;5023220;28;20049;-73
2021/11/08 13:04:59;;;;;;;20.67;8.18;;;9.50;99.90;;;;;;5003039;28;20054;-73
2021/11/08 13:07:34;;;;;;;20.52;8.68;;;9.50;99.90;;;;;;5010665;28;20060;-73
2021/11/08 13:10:02;;;;;;;;;;;9.50;99.90;;;;;;5025749;28;20270;-73
2021/11/08 13:12:35;;;;;;;28.08;9.23;;;9.50;99.90;;;;;;5023301;28;20391;-73
2021/11/08 13:15:09;;;;;;;20.30;8.30;;;9.50;99.90;;;;;;5007310;28;20084;-73
2021/11/08 13:17:59;;;;;;;29.48;10.38;;;9.50;99.90;;;;;;4988324;28;20534;-73
2021/11/08 13:20:32;;;;;;;23.10;10.50;;;9.60;99.90;;;;;;5024418;28;20061;-73
2021/11/08 13:23:05;;;;;;;17.27;6.95;;;9.60;99.90;;;;;;5023239;28;20046;-73
2021/11/08 13:25:36;;;;;;;21.10;9.43;;;9.80;99.90;;;;;;5007096;28;20086;-73
2021/11/08 13:28:10;;;;;;;25.80;8.90;;;9.90;99.90;;;;;;5038841;28;20073;-73
2021/11/08 13:30:45;;;;;;;21.25;8.77;;;9.80;99.90;;;;;;5001027;28;20053;-74
2021/11/08 13:33:14;;;;;;;20.75;8.70;;;9.80;99.90;;;;;;4988330;28;20660;-74
2021/11/08 13:35:43;;;;;;;15.18;8.35;;;9.70;99.90;;;;;;5005804;28;20049;-74
2021/11/08 13:38:22;;;;;;;20.55;8.57;;;9.50;99.90;;;;;;5006425;28;20212;-73
2021/11/08 13:41:04;;;;;;;26.40;8.90;;;9.50;99.90;;;;;;5006697;28;20045;-73
2021/11/08 13:43:59;;;;;;;23.35;9.98;;;9.40;99.90;;;;;;5024720;28;20064;-74
2021/11/08 13:46:35;;;;;;;26.65;10.13;;;9.30;99.90;;;;;;4976121;28;20056;-73
2021/11/08 13:49:07;;;;;;;30.05;10.27;;;9.20;99.90;;;;;;5006340;28;20045;-73
2021/11/08 13:51:46;;;;;;;25.90;10.02;;;9.20;99.90;;;;;;5006514;28;20065;-74
2021/11/08 13:54:19;;;;;;;23.95;9.55;;;9.10;99.90;;;;;;4989338;28;20046;-74
2021/11/08 13:56:48;;;;;;;31.90;10.10;;;9.20;99.90;;;;;;5010083;28;20087;-73
2021/11/08 13:59:25;;;;;;;22.83;9.23;;;9.30;99.90;;;;;;5011378;28;20100;-73
2021/11/08 14:01:59;;;;;;;24.23;8.73;;;9.30;99.90;;;;;;4988608;28;20712;-74
2021/11/08 14:04:49;;;;;;;21.33;8.80;;;9.30;99.90;;;;;;4989697;28;20053;-75
2021/11/08 14:07:19;;;;;;;27.10;7.90;;;9.20;99.90;;;;;;4989057;28;20111;-73
2021/11/08 14:09:46;;;;;;;22.83;8.18;;;9.20;99.90;;;;;;5006090;28;20057;-73
2021/11/08 14:12:16;;;;;;;24.52;9.10;;;9.20;99.90;;;;;;5022943;28;20415;-73
2021/11/08 14:14:44;;;;;;;28.75;9.40;;;9.20;99.90;;;;;;4989348;28;20041;-73
2021/11/08 14:17:15;;;;;;;25.23;9.00;;;9.30;99.90;;;;;;5005017;28;20069;-74
2021/11/08 14:19:45;;;;;;;25.67;7.85;;;9.30;99.90;;;;;;4989820;28;20049;-73
2021/11/08 14:22:12;;;;;;;24.30;8.07;;;9.30;99.90;;;;;;5006183;28;20543;-73
2021/11/08 14:24:42;;;;;;;19.65;8.48;;;9.30;99.90;;;;;;4988303;28;20076;-73
2021/11/08 14:27:18;;;;;;;24.88;8.40;;;9.40;99.90;;;;;;5022074;28;20511;-73
2021/11/08 14:29:46;;;;;;;19.00;7.40;;;9.30;99.90;;;;;;5022318;28;20159;-73
2021/11/08 14:32:20;;;;;;;26.73;8.45;;;9.30;99.90;;;;;;5009503;28;20046;-73
2021/11/08 14:35:11;;;;;;;25.67;7.25;;;9.30;99.90;;;;;;4990006;28;20557;-73
2021/11/08 14:37:46;;;;;;;23.08;8.13;;;9.30;99.90;;;;;;5003871;28;20053;-73
2021/11/08 14:40:18;;;;;;;21.30;11.05;;;9.30;99.90;;;;;;5003573;28;20054;-75